createdAt,value
2023-03-17T00:00:00.275Z,23.74
2023-03-17T00:01:00.359Z,23.74
2023-03-17T00:02:00.390Z,23.74
2023-03-17T00:03:00.394Z,23.73
2023-03-17T00:04:00.480Z,23.74
2023-03-17T00:05:00.517Z,23.74
2023-03-17T00:06:00.550Z,23.75
2023-03-17T00:07:00.598Z,23.74
2023-03-17T00:08:00.593Z,23.74
2023-03-17T00:09:00.657Z,23.75
2023-03-17T00:10:00.698Z,23.74
2023-03-17T00:11:00.732Z,23.74
2023-03-17T00:12:00.771Z,23.73
2023-03-17T00:13:00.783Z,23.73
2023-03-17T00:14:00.823Z,23.72
2023-03-17T00:15:00.877Z,23.72
2023-03-17T00:16:01.005Z,23.72
2023-03-17T00:17:00.946Z,23.72
2023-03-17T00:18:00.977Z,23.72
2023-03-17T00:19:01.030Z,23.72
2023-03-17T00:20:01.057Z,23.72
2023-03-17T00:21:01.090Z,23.72
2023-03-17T00:22:01.328Z,23.72
2023-03-17T00:23:01.170Z,23.72
2023-03-17T00:24:01.230Z,23.73
2023-03-17T00:25:01.262Z,23.72
2023-03-17T00:26:01.292Z,23.72
2023-03-17T00:27:01.333Z,23.73
2023-03-17T00:28:01.377Z,23.73
2023-03-17T00:36:01.716Z,23.75
2023-03-17T00:37:01.722Z,23.75
2023-03-17T00:38:02.614Z,23.75
2023-03-17T00:39:01.777Z,23.75
2023-03-17T00:40:01.798Z,23.75
2023-03-17T00:41:01.886Z,23.74
2023-03-17T00:42:01.920Z,23.74
2023-03-17T00:43:01.957Z,23.74
2023-03-17T00:44:01.956Z,23.74
2023-03-17T00:45:02.014Z,23.73
2023-03-17T00:46:02.081Z,23.74
2023-03-17T00:47:02.120Z,23.74
2023-03-17T00:48:02.155Z,23.74
2023-03-17T00:49:02.193Z,23.74
2023-03-17T00:50:02.228Z,23.74
2023-03-17T00:51:02.270Z,23.73
2023-03-17T00:52:02.309Z,23.72
2023-03-17T00:53:02.343Z,23.69
2023-03-17T00:54:02.391Z,23.68
2023-03-17T00:55:02.469Z,23.67
2023-03-17T00:56:02.522Z,23.66
2023-03-17T00:57:02.555Z,23.66
2023-03-17T00:58:02.595Z,23.65
2023-03-17T00:59:02.685Z,23.64
2023-03-17T01:00:02.722Z,23.64
2023-03-17T01:01:02.821Z,23.62
2023-03-17T01:02:02.868Z,23.60
2023-03-17T01:03:02.887Z,23.57
2023-03-17T01:04:02.916Z,23.57
2023-03-17T01:05:06.794Z,23.55
2023-03-17T01:06:03.011Z,23.55
2023-03-17T01:07:03.001Z,23.57
2023-03-17T01:08:02.960Z,23.57
2023-03-17T01:09:02.946Z,23.59
2023-03-17T01:10:02.964Z,23.58
2023-03-17T01:11:02.967Z,23.58
2023-03-17T01:12:02.948Z,23.57
2023-03-17T01:13:02.929Z,23.56
2023-03-17T01:14:02.942Z,23.53
2023-03-17T01:15:02.927Z,23.52
2023-03-17T01:16:02.946Z,23.53
2023-03-17T01:17:02.885Z,23.54
2023-03-17T01:18:02.918Z,23.54
2023-03-17T01:19:03.038Z,23.56
2023-03-17T01:20:02.886Z,23.56
2023-03-17T01:21:02.894Z,23.57
2023-03-17T01:22:02.871Z,23.58
2023-03-17T01:23:02.862Z,23.58
2023-03-17T01:24:02.865Z,23.60
2023-03-17T01:25:02.852Z,23.61
2023-03-17T01:26:02.878Z,23.62
2023-03-17T01:27:02.845Z,23.62
2023-03-17T01:28:02.862Z,23.63
2023-03-17T01:29:02.890Z,23.64
2023-03-17T01:30:02.963Z,23.65
2023-03-17T01:31:03.028Z,23.65
2023-03-17T01:32:03.049Z,23.67
2023-03-17T01:33:03.163Z,23.67
2023-03-17T01:34:03.125Z,23.68
2023-03-17T01:35:03.183Z,23.68
2023-03-17T01:36:03.298Z,23.69
2023-03-17T01:37:03.267Z,23.70
2023-03-17T01:38:03.318Z,23.71
2023-03-17T01:39:03.404Z,23.70
2023-03-17T01:40:03.391Z,23.71
2023-03-17T01:41:03.489Z,23.72
2023-03-17T01:42:03.493Z,23.72
2023-03-17T01:43:03.518Z,23.74
2023-03-17T01:44:03.570Z,23.74
2023-03-17T01:45:03.608Z,23.76
2023-03-17T01:46:03.648Z,23.76
2023-03-17T01:47:03.687Z,23.77
2023-03-17T01:48:03.714Z,23.78
2023-03-17T01:49:03.769Z,23.79
2023-03-17T01:50:03.780Z,23.80
2023-03-17T01:51:03.793Z,23.82
2023-03-17T01:52:03.846Z,23.83
2023-03-17T01:53:03.891Z,23.85
2023-03-17T01:54:03.920Z,23.86
2023-03-17T01:55:03.951Z,23.88
2023-03-17T01:56:03.984Z,23.89
2023-03-17T01:57:04.001Z,23.91
2023-03-17T01:58:04.038Z,23.93
2023-03-17T01:59:04.033Z,23.95
2023-03-17T02:00:04.074Z,23.98
2023-03-17T02:01:04.153Z,23.99
2023-03-17T02:02:04.135Z,24.01
2023-03-17T02:03:04.129Z,24.02
2023-03-17T02:04:04.219Z,24.05
2023-03-17T02:05:04.229Z,24.06
2023-03-17T02:06:04.653Z,24.06
2023-03-17T02:07:04.243Z,24.07
2023-03-17T02:08:04.206Z,24.07
2023-03-17T02:09:04.241Z,24.07
2023-03-17T02:10:04.208Z,24.08
2023-03-17T02:11:04.317Z,24.11
2023-03-17T02:12:04.270Z,24.13
2023-03-17T02:13:04.293Z,24.14
2023-03-17T02:14:04.303Z,24.15
2023-03-17T02:15:04.306Z,24.17
2023-03-17T02:16:04.353Z,24.20
2023-03-17T02:17:04.308Z,24.21
2023-03-17T02:18:04.337Z,24.22
2023-03-17T02:19:04.311Z,24.23
2023-03-17T02:20:04.340Z,24.24
2023-03-17T02:21:04.343Z,24.26
2023-03-17T02:22:04.343Z,24.26
2023-03-17T02:23:04.349Z,24.27
2023-03-17T02:24:04.348Z,24.28
2023-03-17T02:25:04.353Z,24.30
2023-03-17T02:26:04.365Z,24.30
2023-03-17T02:27:04.348Z,24.31
2023-03-17T02:28:04.336Z,24.32
2023-03-17T02:29:04.337Z,24.33
2023-03-17T02:30:04.359Z,24.34
2023-03-17T02:31:04.360Z,24.35
2023-03-17T02:32:04.394Z,24.36
2023-03-17T02:33:04.418Z,24.36
2023-03-17T02:34:04.353Z,24.37
2023-03-17T02:35:04.352Z,24.38
2023-03-17T02:36:04.415Z,24.39
2023-03-17T02:37:04.360Z,24.38
2023-03-17T02:38:04.354Z,24.39
2023-03-17T02:39:04.379Z,24.39
2023-03-17T02:40:04.397Z,24.39
2023-03-17T02:41:04.394Z,24.39
2023-03-17T02:42:04.439Z,24.40
2023-03-17T02:43:04.412Z,24.40
2023-03-17T02:44:04.408Z,24.39
2023-03-17T02:45:04.420Z,24.39
2023-03-17T02:46:04.442Z,24.39
2023-03-17T02:47:04.424Z,24.40
2023-03-17T02:48:04.444Z,24.40
2023-03-17T02:49:04.462Z,24.41
2023-03-17T02:50:04.456Z,24.41
2023-03-17T02:51:04.471Z,24.43
2023-03-17T02:52:04.450Z,24.43
2023-03-17T02:53:04.487Z,24.44
2023-03-17T02:54:04.483Z,24.45
2023-03-17T02:55:04.501Z,24.45
2023-03-17T02:56:04.488Z,24.47
2023-03-17T02:57:04.515Z,24.48
2023-03-17T02:58:04.512Z,24.50
2023-03-17T02:59:04.491Z,24.49
2023-03-17T03:00:04.520Z,24.51
2023-03-17T03:01:04.498Z,24.51
2023-03-17T03:02:04.499Z,24.51
2023-03-17T03:03:04.495Z,24.51
2023-03-17T03:04:04.506Z,24.50
2023-03-17T03:05:04.503Z,24.50
2023-03-17T03:06:04.503Z,24.50
2023-03-17T03:07:04.517Z,24.50
2023-03-17T03:08:04.514Z,24.51
2023-03-17T03:09:04.500Z,24.51
2023-03-17T03:10:04.524Z,24.49
2023-03-17T03:11:04.532Z,24.48
2023-03-17T03:12:04.536Z,24.46
2023-03-17T03:13:04.523Z,24.47
2023-03-17T03:14:04.529Z,24.47
2023-03-17T03:15:04.562Z,24.47
2023-03-17T03:16:04.612Z,24.47
2023-03-17T03:17:04.539Z,24.48
2023-03-17T03:18:04.542Z,24.49
2023-03-17T03:19:04.569Z,24.49
2023-03-17T03:20:04.579Z,24.50
2023-03-17T03:21:04.551Z,24.52
2023-03-17T03:22:04.548Z,24.53
2023-03-17T03:23:04.537Z,24.55
2023-03-17T03:24:04.553Z,24.56
2023-03-17T03:25:04.542Z,24.57
2023-03-17T03:26:04.608Z,24.58
2023-03-17T03:27:04.556Z,24.60
2023-03-17T03:28:04.558Z,24.61
2023-03-17T03:29:04.542Z,24.62
2023-03-17T03:30:04.551Z,24.62
2023-03-17T03:31:04.628Z,24.63
2023-03-17T03:32:04.613Z,24.63
2023-03-17T03:33:04.760Z,24.64
2023-03-17T03:34:04.688Z,24.65
2023-03-17T03:35:04.680Z,24.65
2023-03-17T03:36:04.786Z,24.65
2023-03-17T03:37:04.728Z,24.65
2023-03-17T03:38:04.769Z,24.65
2023-03-17T03:39:04.834Z,24.66
2023-03-17T03:40:04.866Z,24.66
2023-03-17T03:41:04.906Z,24.65
2023-03-17T03:42:04.922Z,24.64
2023-03-17T03:43:16.232Z,24.62
2023-03-17T03:44:05.944Z,24.59
2023-03-17T03:45:04.908Z,24.59
2023-03-17T03:46:04.956Z,24.58
2023-03-17T03:47:04.912Z,24.57
2023-03-17T03:48:04.886Z,24.59
2023-03-17T03:49:04.917Z,24.60
2023-03-17T03:50:04.890Z,24.59
2023-03-17T03:51:04.917Z,24.59
2023-03-17T03:52:04.872Z,24.60
2023-03-17T03:53:04.855Z,24.60
2023-03-17T03:54:04.872Z,24.63
2023-03-17T03:55:04.856Z,24.62
2023-03-17T03:56:04.881Z,24.64
2023-03-17T03:57:04.849Z,24.64
2023-03-17T03:58:05.665Z,24.65
2023-03-17T03:59:04.813Z,24.67
2023-03-17T04:00:04.870Z,24.67
2023-03-17T04:01:04.872Z,24.67
2023-03-17T04:02:04.943Z,24.68
2023-03-17T04:03:05.022Z,24.68
2023-03-17T04:04:05.040Z,24.69
2023-03-17T04:05:05.061Z,24.68
2023-03-17T04:06:05.117Z,24.69
2023-03-17T04:07:05.088Z,24.69
2023-03-17T04:08:05.147Z,24.67
2023-03-17T04:09:05.118Z,24.66
2023-03-17T04:10:05.159Z,24.64
2023-03-17T04:11:05.177Z,24.63
2023-03-17T04:12:05.147Z,24.63
2023-03-17T04:13:05.144Z,24.63
2023-03-17T04:14:05.121Z,24.63
2023-03-17T04:15:05.180Z,24.62
2023-03-17T04:16:05.229Z,24.63
2023-03-17T04:17:05.174Z,24.64
2023-03-17T04:18:05.160Z,24.65
2023-03-17T06:01:12.785Z,24.61
2023-03-17T06:46:12.320Z,24.35
2023-03-17T11:30:08.560Z,24.94
2023-03-17T11:31:08.567Z,24.97
2023-03-17T11:32:08.678Z,24.99
2023-03-17T11:33:08.813Z,25.01
2023-03-17T11:34:08.766Z,25.01
2023-03-17T11:35:08.892Z,25.01
2023-03-17T11:36:08.949Z,24.99
2023-03-17T11:37:09.023Z,24.98
2023-03-17T11:38:09.013Z,24.96
2023-03-17T11:39:09.078Z,24.95
2023-03-17T11:40:09.384Z,24.93
2023-03-17T11:41:09.202Z,24.90
2023-03-17T11:42:09.195Z,24.88
2023-03-17T11:43:09.201Z,24.87
2023-03-17T11:44:09.273Z,24.84
2023-03-17T11:45:09.386Z,24.82
2023-03-17T11:46:09.280Z,24.79
2023-03-17T11:47:09.242Z,24.76
2023-03-17T11:48:09.224Z,24.74
2023-03-17T11:49:09.247Z,24.70
2023-03-17T11:50:09.412Z,24.69
2023-03-17T11:51:09.230Z,24.68
2023-03-17T11:52:09.210Z,24.66
2023-03-17T11:53:09.228Z,24.64
2023-03-17T11:54:09.207Z,24.64
2023-03-17T11:55:09.223Z,24.62
2023-03-17T11:56:09.236Z,24.61
2023-03-17T11:57:09.239Z,24.60
2023-03-17T11:58:09.240Z,24.47
2023-03-17T11:59:09.245Z,24.28
2023-03-17T12:00:09.275Z,24.10
2023-03-17T12:01:09.335Z,23.99
2023-03-17T12:02:09.332Z,23.93
2023-03-17T12:03:09.486Z,23.92
2023-03-17T12:04:09.509Z,23.92
2023-03-17T12:05:09.501Z,23.96
2023-03-17T12:06:09.509Z,24.00
2023-03-17T12:07:09.559Z,24.05
2023-03-17T12:08:09.619Z,24.11
2023-03-17T12:09:09.650Z,24.14
2023-03-17T12:10:09.656Z,24.18
2023-03-17T12:11:09.664Z,24.20
2023-03-17T12:12:09.719Z,24.23
2023-03-17T12:13:09.767Z,24.23
2023-03-17T12:14:09.764Z,24.05
2023-03-17T12:15:09.892Z,23.88
2023-03-17T12:16:10.409Z,23.72
2023-03-17T12:17:09.884Z,23.57
2023-03-17T12:18:09.940Z,23.44
2023-03-17T12:19:09.955Z,23.35
2023-03-17T12:20:10.411Z,23.27
2023-03-17T12:21:10.077Z,23.28
2023-03-17T12:22:10.095Z,23.31
2023-03-17T12:23:10.182Z,23.37
2023-03-17T12:24:10.191Z,23.40
2023-03-17T12:25:10.245Z,23.35
2023-03-17T12:26:10.298Z,23.30
2023-03-17T12:27:10.340Z,23.25
2023-03-17T12:28:10.427Z,23.24
2023-03-17T12:29:10.479Z,23.27
2023-03-17T12:30:10.907Z,23.28
2023-03-17T12:31:10.619Z,23.34
2023-03-17T12:32:10.639Z,23.37
2023-03-17T12:33:10.812Z,23.44
2023-03-17T12:34:10.712Z,23.52
2023-03-17T12:35:11.102Z,23.58
2023-03-17T12:36:10.952Z,23.65
2023-03-17T12:37:10.918Z,23.69
2023-03-17T12:38:10.959Z,23.71
2023-03-17T12:39:10.998Z,23.75
2023-03-17T12:40:11.074Z,23.76
2023-03-17T12:41:11.123Z,23.74
2023-03-17T12:42:11.197Z,23.73
2023-03-17T12:43:11.240Z,23.74
2023-03-17T12:44:11.289Z,23.75
2023-03-17T12:45:11.355Z,23.78
2023-03-17T12:46:11.447Z,23.83
2023-03-17T12:47:11.464Z,23.82
2023-03-17T13:40:13.149Z,24.22
2023-03-17T16:56:18.595Z,24.11
2023-03-17T16:57:18.540Z,24.10
2023-03-17T16:58:18.569Z,24.10
2023-03-17T16:59:18.602Z,24.10
2023-03-17T17:00:18.594Z,24.10
2023-03-17T17:01:18.737Z,24.10
2023-03-17T17:02:18.652Z,24.10
2023-03-17T17:03:18.742Z,24.09
2023-03-17T17:04:18.746Z,24.10
2023-03-17T17:05:18.728Z,24.10
2023-03-17T17:06:18.815Z,24.10
2023-03-17T17:07:18.803Z,24.10
2023-03-17T17:08:18.847Z,24.09
2023-03-17T17:09:18.850Z,24.10
2023-03-17T17:10:18.891Z,24.09
2023-03-17T17:11:18.960Z,24.10
2023-03-17T17:12:18.978Z,24.09
2023-03-17T17:13:18.984Z,24.09
2023-03-17T17:14:18.990Z,24.09
2023-03-17T17:15:19.046Z,24.09
2023-03-17T17:16:19.063Z,24.08
2023-03-17T17:17:19.078Z,24.08
2023-03-17T17:18:19.079Z,24.07
2023-03-17T17:19:19.128Z,24.08
2023-03-17T17:20:19.167Z,24.07
2023-03-17T17:21:19.183Z,24.06
2023-03-17T17:22:19.175Z,24.06
2023-03-17T17:23:19.243Z,24.06
2023-03-17T17:24:19.308Z,24.05
2023-03-17T17:25:19.322Z,24.05
2023-03-17T17:26:19.374Z,24.04
2023-03-17T17:27:19.352Z,24.03
2023-03-17T17:28:19.424Z,24.03
2023-03-17T17:29:19.448Z,24.03
2023-03-17T17:30:19.497Z,24.03
2023-03-17T17:31:19.534Z,24.03
2023-03-17T17:32:19.520Z,24.02
2023-03-17T17:33:19.544Z,24.03
2023-03-17T17:34:19.601Z,24.02
2023-03-17T17:35:19.605Z,24.02
2023-03-17T17:36:19.657Z,24.02
2023-03-17T17:37:19.677Z,24.03
2023-03-17T17:38:19.710Z,24.02
2023-03-17T17:39:19.736Z,24.01
2023-03-17T17:40:19.776Z,24.02
2023-03-17T17:41:19.817Z,24.01
2023-03-17T17:42:19.828Z,24.00
2023-03-17T17:43:19.929Z,24.00
2023-03-17T17:44:19.898Z,23.99
2023-03-17T17:45:19.939Z,23.99
2023-03-17T17:46:20.035Z,24.00
2023-03-17T17:47:20.036Z,24.00
2023-03-17T17:48:20.074Z,24.00
2023-03-17T17:49:20.085Z,24.00
2023-03-17T17:50:20.112Z,24.00
2023-03-17T17:51:20.162Z,23.99
2023-03-17T17:52:20.180Z,23.99
2023-03-17T17:53:20.213Z,23.99
2023-03-17T17:54:20.349Z,24.00
2023-03-17T17:55:20.283Z,23.99
2023-03-17T17:56:20.342Z,23.98
2023-03-17T17:57:20.336Z,23.98
2023-03-17T17:58:20.408Z,23.99
2023-03-17T17:59:20.421Z,23.98
2023-03-17T18:00:20.452Z,23.98
2023-03-17T18:01:20.550Z,23.98
2023-03-17T18:02:20.548Z,23.98
2023-03-17T18:03:20.568Z,23.98
2023-03-17T18:04:20.637Z,23.98
2023-03-17T18:05:20.651Z,23.96
2023-03-17T18:06:20.702Z,23.96
2023-03-17T18:07:20.734Z,23.95
2023-03-17T18:08:20.742Z,23.96
2023-03-17T18:09:20.772Z,23.94
2023-03-17T18:10:20.836Z,23.95
2023-03-17T18:11:20.873Z,23.95
2023-03-17T18:12:20.914Z,23.94
2023-03-17T18:13:20.987Z,23.94
2023-03-17T18:14:20.996Z,23.94
2023-03-17T18:15:21.018Z,23.94
2023-03-17T18:16:21.122Z,23.93
2023-03-17T18:17:21.081Z,23.93
2023-03-17T18:18:21.157Z,23.92
2023-03-17T18:19:21.171Z,23.92
2023-03-17T18:20:21.228Z,23.92
2023-03-17T18:21:21.278Z,23.92
2023-03-17T18:22:21.310Z,23.92
2023-03-17T18:23:21.321Z,23.92
2023-03-17T18:24:21.385Z,23.92
2023-03-17T18:25:21.467Z,23.91
2023-03-17T18:26:21.506Z,23.91
2023-03-17T18:27:21.506Z,23.90
2023-03-17T18:28:21.572Z,23.90
2023-03-17T18:29:21.607Z,23.89
2023-03-17T18:30:21.649Z,23.88
2023-03-17T18:31:21.750Z,23.89
2023-03-17T18:32:21.744Z,23.89
2023-03-17T18:33:21.800Z,23.88
2023-03-17T18:34:21.815Z,23.89
2023-03-17T18:35:21.920Z,23.88
2023-03-17T18:36:21.914Z,23.89
2023-03-17T18:37:22.114Z,23.89
2023-03-17T18:38:22.058Z,23.88
2023-03-17T18:39:22.042Z,23.88
2023-03-17T18:40:22.075Z,23.88
2023-03-17T18:41:22.167Z,23.87
2023-03-17T18:42:22.180Z,23.86
2023-03-17T18:43:22.235Z,23.85
2023-03-17T18:44:22.273Z,23.85
2023-03-17T18:45:22.339Z,23.84
2023-03-17T18:46:22.382Z,23.83
2023-03-17T18:47:22.425Z,23.82
2023-03-17T18:48:22.470Z,23.82
2023-03-17T18:49:22.520Z,23.82
2023-03-17T18:50:22.543Z,23.81
2023-03-17T18:51:22.642Z,23.80
2023-03-17T18:52:22.673Z,23.80
2023-03-17T18:53:22.792Z,23.80
2023-03-17T18:54:22.929Z,23.81
2023-03-17T18:55:23.001Z,23.81
2023-03-17T18:56:22.850Z,23.81
2023-03-17T18:57:22.940Z,23.81
2023-03-17T18:58:22.982Z,23.80
2023-03-17T18:59:23.056Z,23.80
2023-03-17T19:00:23.087Z,23.79
2023-03-17T19:01:23.206Z,23.80
2023-03-17T19:02:23.200Z,23.79
2023-03-17T19:03:23.303Z,23.80
2023-03-17T19:04:23.286Z,23.79
2023-03-17T19:05:23.333Z,23.80
2023-03-17T19:06:23.436Z,23.79
2023-03-17T19:07:23.460Z,23.79
2023-03-17T19:08:23.496Z,23.79
2023-03-17T19:09:23.542Z,23.78
2023-03-17T19:10:23.587Z,23.78
2023-03-17T19:11:23.663Z,23.78
2023-03-17T19:12:23.739Z,23.78
2023-03-17T19:13:23.758Z,23.78
2023-03-17T19:14:23.850Z,23.78
2023-03-17T19:15:23.872Z,23.79
2023-03-17T19:16:23.954Z,23.78
2023-03-17T19:17:23.982Z,23.78
2023-03-17T19:18:24.043Z,23.78
2023-03-17T19:19:24.082Z,23.77
2023-03-17T19:20:24.141Z,23.77
2023-03-17T19:21:24.196Z,23.78
2023-03-17T19:22:24.242Z,23.78
2023-03-17T19:23:24.305Z,23.79
2023-03-17T19:24:24.348Z,23.79
2023-03-17T19:25:24.406Z,23.78
2023-03-17T19:26:24.479Z,23.78
2023-03-17T19:27:24.522Z,23.80
2023-03-17T19:28:24.566Z,23.80
2023-03-17T19:29:24.607Z,23.80
2023-03-17T19:30:24.666Z,23.81
2023-03-17T19:31:24.946Z,23.81
2023-03-17T19:32:24.780Z,23.81
2023-03-17T19:33:24.822Z,23.81
2023-03-17T19:34:24.867Z,23.80
2023-03-17T19:35:24.938Z,23.81
2023-03-17T19:36:25.000Z,23.81
2023-03-17T19:37:25.056Z,23.81
2023-03-17T19:38:25.092Z,23.82
2023-03-17T19:39:25.143Z,23.82
2023-03-17T19:40:25.188Z,23.81
2023-03-17T19:41:25.201Z,23.81
2023-03-17T19:42:25.266Z,23.81
2023-03-17T19:43:39.455Z,23.82
2023-03-17T19:44:26.309Z,23.81
2023-03-17T19:45:26.089Z,23.80
2023-03-17T19:46:25.267Z,23.80
2023-03-17T19:47:25.263Z,23.81
2023-03-17T19:48:25.256Z,23.81
2023-03-17T19:49:25.250Z,23.81
2023-03-17T19:50:25.230Z,23.81
2023-03-17T19:51:25.243Z,23.80
2023-03-17T19:52:25.221Z,23.80
2023-03-17T19:53:25.191Z,23.79
2023-03-17T19:54:25.209Z,23.79
2023-03-17T19:55:25.200Z,23.78
2023-03-17T19:56:25.217Z,23.78
2023-03-17T19:57:25.225Z,23.78
2023-03-17T19:58:25.279Z,23.78
2023-03-17T19:59:25.319Z,23.78
2023-03-17T20:00:25.336Z,23.78
2023-03-17T20:01:25.411Z,23.79
2023-03-17T20:02:25.387Z,23.79
2023-03-17T20:03:26.378Z,23.79
2023-03-17T20:04:25.486Z,23.79
2023-03-17T20:05:25.545Z,23.79
2023-03-17T20:06:25.540Z,23.79
2023-03-17T20:07:25.621Z,23.79
2023-03-17T20:08:25.626Z,23.79
2023-03-17T20:09:25.671Z,23.79
2023-03-17T20:10:25.674Z,23.79
2023-03-17T20:11:25.768Z,23.78
2023-03-17T20:12:25.790Z,23.77
2023-03-17T20:13:25.818Z,23.77
2023-03-17T20:14:25.882Z,23.77
2023-03-17T20:15:25.930Z,23.75
2023-03-17T20:16:26.039Z,23.74
2023-03-17T20:17:25.975Z,23.73
2023-03-17T20:18:26.074Z,23.73
2023-03-17T20:19:26.067Z,23.71
2023-03-17T20:20:26.141Z,23.71
2023-03-17T20:21:26.151Z,23.70
2023-03-17T20:22:26.206Z,23.71
2023-03-17T20:23:26.238Z,23.71
2023-03-17T20:24:26.307Z,23.71
2023-03-17T20:25:26.348Z,23.72
2023-03-17T20:26:26.922Z,23.72
2023-03-17T20:27:26.407Z,23.72
2023-03-17T20:28:28.264Z,23.73
2023-03-17T20:29:26.466Z,23.72
2023-03-17T20:30:26.468Z,23.72
2023-03-17T20:31:26.488Z,23.71
2023-03-17T20:32:26.405Z,23.70
2023-03-17T20:33:26.391Z,23.70
2023-03-17T20:34:26.417Z,23.69
2023-03-17T20:35:26.392Z,23.69
2023-03-17T20:36:26.401Z,23.70
2023-03-17T20:37:26.397Z,23.70
2023-03-17T20:38:26.380Z,23.70
2023-03-17T22:10:28.457Z,23.73
2023-03-17T22:11:28.510Z,23.73
2023-03-17T22:12:28.542Z,23.74
2023-03-17T22:13:28.578Z,23.74
2023-03-17T22:14:28.614Z,23.74
2023-03-17T22:15:28.660Z,23.75
2023-03-17T22:16:28.719Z,23.74
2023-03-17T22:17:28.729Z,23.74
2023-03-17T22:18:28.747Z,23.74
2023-03-17T22:19:28.796Z,23.75
2023-03-17T22:20:28.852Z,23.74
2023-03-17T22:21:28.852Z,23.75
2023-03-17T22:22:28.926Z,23.74
2023-03-17T22:23:28.965Z,23.75
2023-03-17T22:24:29.004Z,23.75
2023-03-17T22:25:29.034Z,23.75
2023-03-17T22:26:29.074Z,23.75
2023-03-17T22:27:29.102Z,23.74
2023-03-17T22:28:29.151Z,23.74
2023-03-17T22:29:29.218Z,23.74
2023-03-17T22:30:29.286Z,23.73
2023-03-17T22:31:29.404Z,23.73
2023-03-17T22:32:29.340Z,23.73
2023-03-17T22:33:29.357Z,23.71
2023-03-17T22:34:29.408Z,23.72
2023-03-17T22:35:29.435Z,23.71
2023-03-17T22:36:29.523Z,23.72
2023-03-17T22:37:29.569Z,23.71
2023-03-17T22:38:29.594Z,23.71
2023-03-17T22:39:29.609Z,23.72
2023-03-17T22:40:30.234Z,23.72
2023-03-17T22:41:29.740Z,23.73
2023-03-17T22:42:29.751Z,23.72
2023-03-17T22:43:29.810Z,23.73
2023-03-17T22:44:29.880Z,23.73
2023-03-17T22:45:29.881Z,23.73
2023-03-17T22:46:29.928Z,23.73
2023-03-17T22:47:29.964Z,23.73
2023-03-17T22:48:30.052Z,23.74
2023-03-17T22:49:30.071Z,23.73
2023-03-17T22:50:30.470Z,23.74
2023-03-17T22:51:30.152Z,23.73
2023-03-17T22:52:30.187Z,23.73
2023-03-17T22:53:30.218Z,23.74
2023-03-17T22:54:30.268Z,23.73
2023-03-17T22:55:30.325Z,23.73
2023-03-17T22:56:30.390Z,23.74
2023-03-17T22:57:30.429Z,23.74
2023-03-17T22:58:30.459Z,23.73
2023-03-17T22:59:30.485Z,23.74
2023-03-17T23:00:30.816Z,23.74
2023-03-17T23:01:30.607Z,23.74
2023-03-17T23:02:30.622Z,23.74
2023-03-17T23:03:30.730Z,23.74
2023-03-17T23:04:30.700Z,23.74
2023-03-17T23:05:30.750Z,23.74
2023-03-17T23:06:30.834Z,23.73
2023-03-17T23:07:31.837Z,23.74
2023-03-17T23:08:31.090Z,23.73
2023-03-17T23:09:31.142Z,23.73
2023-03-17T23:10:31.440Z,23.72
2023-03-17T23:11:31.214Z,23.72
2023-03-17T23:12:31.253Z,23.73
2023-03-17T23:13:31.293Z,23.72
2023-03-17T23:14:31.335Z,23.72
2023-03-17T23:15:31.449Z,23.73
2023-03-17T23:16:31.478Z,23.73
2023-03-17T23:17:31.493Z,23.73
2023-03-17T23:18:31.518Z,23.73
2023-03-17T23:19:31.584Z,23.73
2023-03-17T23:20:31.864Z,23.72
2023-03-17T23:21:31.683Z,23.73
2023-03-17T23:22:31.717Z,23.72
2023-03-17T23:23:31.745Z,23.71
2023-03-17T23:24:31.862Z,23.71
2023-03-17T23:25:31.902Z,23.69
2023-03-17T23:26:32.036Z,23.69
2023-03-17T23:27:32.019Z,23.69
2023-03-17T23:28:32.070Z,23.67
2023-03-17T23:29:32.124Z,23.67
2023-03-17T23:30:32.421Z,23.66
2023-03-17T23:31:32.267Z,23.66
2023-03-17T23:32:32.356Z,23.66
2023-03-17T23:33:32.337Z,23.67
2023-03-17T23:34:32.379Z,23.66
2023-03-17T23:35:32.468Z,23.67
2023-03-17T23:36:32.537Z,23.68
2023-03-17T23:37:32.555Z,23.68
2023-03-17T23:38:32.900Z,23.68
2023-03-17T23:39:32.677Z,23.69
2023-03-17T23:40:33.049Z,23.69
2023-03-17T23:41:32.779Z,23.69
2023-03-17T23:42:32.823Z,23.69
2023-03-17T23:43:32.848Z,23.69
2023-03-17T23:44:32.926Z,23.70
2023-03-17T23:45:32.968Z,23.69
2023-03-17T23:46:33.047Z,23.68
2023-03-17T23:47:33.109Z,23.68
2023-03-17T23:48:33.134Z,23.68
2023-03-17T23:49:33.165Z,23.68
2023-03-17T23:50:33.643Z,23.68
2023-03-17T23:51:33.330Z,23.68
2023-03-17T23:52:33.324Z,23.69
2023-03-17T23:53:33.349Z,23.68
2023-03-17T23:54:33.413Z,23.69
2023-03-17T23:55:33.467Z,23.69
2023-03-17T23:56:33.516Z,23.69
2023-03-17T23:57:33.802Z,23.70
2023-03-17T23:58:33.612Z,23.69
2023-03-17T23:59:33.680Z,23.70
